createdAt,value
2023-03-01T00:00:27.428Z,0.68
2023-03-01T00:02:27.852Z,0.69
2023-03-01T00:04:28.202Z,0.77
2023-03-01T00:06:28.753Z,0.81
2023-03-01T00:08:29.259Z,0.80
2023-03-01T00:10:29.576Z,0.80
2023-03-01T00:12:29.876Z,0.84
2023-03-01T00:14:30.134Z,0.83
2023-03-01T00:16:30.747Z,0.81
2023-03-01T00:18:31.213Z,0.77
2023-03-01T00:20:31.469Z,0.86
2023-03-01T00:22:31.787Z,0.87
2023-03-01T00:24:32.062Z,0.83
2023-03-01T00:26:33.524Z,0.78
2023-03-01T00:28:34.001Z,0.84
2023-03-01T00:30:34.298Z,0.74
2023-03-01T00:32:34.602Z,0.77
2023-03-01T00:34:34.905Z,0.80
2023-03-01T00:36:35.204Z,0.76
2023-03-01T00:38:35.490Z,0.59
2023-03-01T00:40:35.844Z,0.66
2023-03-01T00:42:36.159Z,0.56
2023-03-01T00:44:36.461Z,0.37
2023-03-01T00:46:36.967Z,0.34
2023-03-01T00:48:37.223Z,0.29
2023-03-01T00:50:37.562Z,0.23
2023-03-01T00:52:37.833Z,0.18
2023-03-01T00:54:38.155Z,0.12
2023-03-01T00:56:38.551Z,0.11
2023-03-01T00:58:38.817Z,0.11
2023-03-01T01:00:39.123Z,0.07
2023-03-01T01:02:39.428Z,0.12
2023-03-01T01:04:39.713Z,0.12
2023-03-01T01:06:39.980Z,0.18
2023-03-01T01:08:40.255Z,0.19
2023-03-01T01:10:40.603Z,0.16
2023-03-01T01:12:40.920Z,0.18
2023-03-01T01:14:41.231Z,0.15
2023-03-01T01:16:41.541Z,0.07
2023-03-01T01:18:41.858Z,0.05
2023-03-01T01:20:42.204Z,0.12
2023-03-01T01:22:42.494Z,0.16
2023-03-01T01:24:42.764Z,0.16
2023-03-01T01:26:43.083Z,0.10
2023-03-01T01:28:43.958Z,0.08
2023-03-01T01:30:44.233Z,0.10
2023-03-01T01:32:44.560Z,0.03
2023-03-01T01:34:44.842Z,-0.08
2023-03-01T01:36:45.156Z,-0.14
2023-03-01T01:38:45.444Z,-0.23
2023-03-01T01:40:45.757Z,-0.26
2023-03-01T01:42:46.054Z,-0.26
2023-03-01T01:44:46.346Z,-0.25
2023-03-01T01:46:46.740Z,-0.29
2023-03-01T01:48:47.133Z,-0.32
2023-03-01T01:50:47.430Z,-0.32
2023-03-01T01:52:47.721Z,-0.31
2023-03-01T01:54:48.012Z,-0.29
2023-03-01T01:56:48.397Z,-0.25
2023-03-01T01:58:48.690Z,-0.20
2023-03-01T02:00:48.964Z,-0.28
2023-03-01T02:02:49.455Z,-0.36
2023-03-01T02:04:49.751Z,-0.39
2023-03-01T02:06:50.076Z,-0.44
2023-03-01T02:08:50.429Z,-0.54
2023-03-01T02:10:50.679Z,-0.29
2023-03-01T02:12:50.997Z,-0.07
2023-03-01T02:14:51.280Z,0.00
2023-03-01T02:16:51.609Z,-0.07
2023-03-01T02:18:51.889Z,-0.06
2023-03-01T02:20:52.134Z,-0.13
2023-03-01T02:22:52.624Z,-0.14
2023-03-01T02:24:52.958Z,-0.06
2023-03-01T02:26:53.307Z,0.05
2023-03-01T02:28:53.608Z,0.03
2023-03-01T02:30:53.886Z,0.05
2023-03-01T02:32:54.182Z,0.08
2023-03-01T02:34:54.493Z,0.03
2023-03-01T02:36:54.804Z,0.01
2023-03-01T02:38:55.102Z,-0.03
2023-03-01T02:40:55.405Z,-0.06
2023-03-01T02:42:55.888Z,-0.13
2023-03-01T02:44:56.181Z,-0.08
2023-03-01T02:46:56.648Z,0.01
2023-03-01T02:48:57.095Z,0.04
2023-03-01T02:50:57.359Z,0.05
2023-03-01T02:52:57.683Z,0.05
2023-03-01T02:54:57.955Z,0.07
2023-03-01T02:56:58.252Z,0.12
2023-03-01T02:58:58.554Z,0.15
2023-03-01T03:00:58.917Z,0.10
2023-03-01T03:02:59.276Z,0.04
2023-03-01T03:05:04.396Z,-0.06
2023-03-01T03:07:04.722Z,-0.07
2023-03-01T03:09:05.039Z,-0.14
2023-03-01T03:11:05.317Z,-0.18
2023-03-01T03:13:05.608Z,-0.25
2023-03-01T03:15:05.919Z,-0.31
2023-03-01T03:17:06.242Z,-0.36
2023-03-01T03:19:06.631Z,-0.38
2023-03-01T03:21:06.947Z,-0.41
2023-03-01T03:23:07.252Z,-0.41
2023-03-01T03:25:07.535Z,-0.47
2023-03-01T03:27:07.849Z,-0.50
2023-03-01T03:29:08.131Z,-0.44
2023-03-01T03:31:08.493Z,-0.46
2023-03-01T03:33:10.114Z,-0.46
2023-03-01T03:35:12.124Z,-0.46
2023-03-01T03:37:12.392Z,-0.43
2023-03-01T03:39:12.712Z,-0.39
2023-03-01T03:41:13.036Z,-0.39
2023-03-01T03:43:13.286Z,-0.38
2023-03-01T03:45:13.601Z,-0.35
2023-03-01T03:47:18.841Z,-0.36
2023-03-01T03:49:19.156Z,-0.36
2023-03-01T03:51:19.434Z,-0.32
2023-03-01T03:53:19.715Z,-0.35
2023-03-01T03:55:20.823Z,-0.31
2023-03-01T03:57:21.178Z,-0.28
2023-03-01T03:59:21.455Z,-0.29
2023-03-01T04:01:21.796Z,-0.26
2023-03-01T04:03:22.105Z,-0.25
2023-03-01T04:05:22.414Z,-0.25
2023-03-01T04:07:22.899Z,-0.23
2023-03-01T04:09:23.156Z,-0.18
2023-03-01T04:11:23.488Z,-0.23
2023-03-01T04:13:23.797Z,-0.25
2023-03-01T04:15:24.173Z,-0.28
2023-03-01T04:17:24.452Z,-0.28
2023-03-01T04:19:24.909Z,-0.32
2023-03-01T04:21:25.242Z,-0.35
2023-03-01T04:23:25.499Z,-0.35
2023-03-01T04:25:25.802Z,-0.34
2023-03-01T04:27:26.110Z,-0.32
2023-03-01T04:29:26.454Z,-0.31
2023-03-01T04:31:26.738Z,-0.35
2023-03-01T04:33:27.048Z,-0.39
2023-03-01T04:35:27.480Z,-0.38
2023-03-01T04:37:27.821Z,-0.43
2023-03-01T04:39:28.293Z,-0.43
2023-03-01T04:41:28.565Z,-0.50
2023-03-01T04:43:28.886Z,-0.49
2023-03-01T04:45:29.216Z,-0.54
2023-03-01T04:47:29.596Z,-0.54
2023-03-01T04:49:29.920Z,-0.57
2023-03-01T04:51:30.226Z,-0.68
2023-03-01T04:53:30.496Z,-0.78
2023-03-01T04:55:30.828Z,-0.83
2023-03-01T04:57:31.110Z,-0.83
2023-03-01T04:59:31.404Z,-0.93
2023-03-01T05:01:31.674Z,-0.93
2023-03-01T05:03:32.069Z,-0.86
2023-03-01T05:05:32.340Z,-0.90
2023-03-01T05:07:32.648Z,-0.80
2023-03-01T05:09:32.936Z,-0.78
2023-03-01T05:11:33.244Z,-0.78
2023-03-01T05:13:33.573Z,-0.85
2023-03-01T05:15:33.955Z,-0.90
2023-03-01T05:17:34.255Z,-0.94
2023-03-01T05:19:34.533Z,-1.01
2023-03-01T05:21:34.901Z,-0.99
2023-03-01T05:23:35.133Z,-0.96
2023-03-01T05:25:35.463Z,-0.94
2023-03-01T05:27:35.723Z,-0.89
2023-03-01T05:29:36.063Z,-0.86
2023-03-01T05:31:36.394Z,-0.75
2023-03-01T05:33:38.611Z,-0.61
2023-03-01T05:35:39.132Z,-0.57
2023-03-01T05:37:39.393Z,-0.56
2023-03-01T05:39:39.705Z,-0.49
2023-03-01T05:41:39.998Z,-0.47
2023-03-01T05:43:40.264Z,-0.54
2023-03-01T05:45:40.681Z,-0.62
2023-03-01T05:47:40.967Z,-0.62
2023-03-01T05:49:41.278Z,-0.72
2023-03-01T05:51:41.546Z,-0.62
2023-03-01T05:53:41.851Z,-0.49
2023-03-01T05:55:42.189Z,-0.31
2023-03-01T05:57:42.464Z,-0.18
2023-03-01T05:59:42.724Z,-0.07
2023-03-01T06:01:43.073Z,0.03
2023-03-01T06:03:43.532Z,0.10
2023-03-01T06:05:43.863Z,0.07
2023-03-01T06:07:44.284Z,0.10
2023-03-01T06:09:44.521Z,0.18
2023-03-01T06:11:44.838Z,0.25
2023-03-01T06:13:45.136Z,0.36
2023-03-01T06:15:45.449Z,0.37
2023-03-01T06:17:45.753Z,0.28
2023-03-01T06:19:46.046Z,0.29
2023-03-01T06:21:46.300Z,0.25
2023-03-01T06:23:46.629Z,0.34
2023-03-01T06:25:46.901Z,0.34
2023-03-01T06:27:47.298Z,0.28
2023-03-01T06:29:47.562Z,0.37
2023-03-01T06:31:48.067Z,0.37
2023-03-01T06:33:48.322Z,0.40
2023-03-01T06:35:48.713Z,0.52
2023-03-01T06:37:49.118Z,0.59
2023-03-01T06:39:49.386Z,0.55
2023-03-01T06:41:49.689Z,0.60
2023-03-01T06:43:49.975Z,0.62
2023-03-01T06:45:50.241Z,0.63
2023-03-01T06:47:50.590Z,0.63
2023-03-01T06:49:50.883Z,0.65
2023-03-01T06:51:51.196Z,0.63
2023-03-01T06:53:52.404Z,0.68
2023-03-01T06:55:52.697Z,0.66
2023-03-01T06:57:52.961Z,0.68
2023-03-01T06:59:53.259Z,0.68
2023-03-01T07:01:53.578Z,0.70
2023-03-01T07:03:53.835Z,0.76
2023-03-01T07:05:54.133Z,0.77
2023-03-01T07:07:54.456Z,0.81
2023-03-01T07:09:54.740Z,0.84
2023-03-01T07:11:55.077Z,0.84
2023-03-01T07:13:55.368Z,0.86
2023-03-01T07:15:55.835Z,0.88
2023-03-01T07:17:56.137Z,0.94
2023-03-01T07:19:56.414Z,0.96
2023-03-01T07:21:56.761Z,1.02
2023-03-01T07:23:57.050Z,1.14
2023-03-01T07:25:57.349Z,1.26
2023-03-01T07:27:57.639Z,1.30
2023-03-01T07:29:57.949Z,1.34
2023-03-01T07:31:58.285Z,1.42
2023-03-01T07:33:58.592Z,1.48
2023-03-01T07:35:59.001Z,1.50
2023-03-01T07:37:59.290Z,1.56
2023-03-01T07:39:59.583Z,1.59
2023-03-01T07:41:59.889Z,1.63
2023-03-01T07:44:00.167Z,1.66
2023-03-01T07:46:00.586Z,1.67
2023-03-01T07:48:00.878Z,1.68
2023-03-01T07:50:01.264Z,1.71
2023-03-01T07:52:01.556Z,1.76
2023-03-01T07:54:01.862Z,1.81
2023-03-01T07:56:02.189Z,1.81
2023-03-01T07:58:02.472Z,1.88
2023-03-01T08:00:02.757Z,1.91
2023-03-01T08:02:08.083Z,1.97
2023-03-01T08:04:08.455Z,2.02
2023-03-01T08:06:08.727Z,2.06
2023-03-01T08:08:09.000Z,2.06
2023-03-01T08:10:09.340Z,2.11
2023-03-01T08:12:09.629Z,2.11
2023-03-01T08:14:09.995Z,2.15
2023-03-01T08:16:10.314Z,2.20
2023-03-01T08:18:10.639Z,2.18
2023-03-01T08:20:10.927Z,2.28
2023-03-01T08:22:11.243Z,2.32
2023-03-01T08:24:11.566Z,2.36
2023-03-01T08:26:11.853Z,2.39
2023-03-01T08:28:12.164Z,2.44
2023-03-01T08:30:12.440Z,2.46
2023-03-01T08:32:12.894Z,2.51
2023-03-01T08:34:13.272Z,2.56
2023-03-01T08:36:13.608Z,2.67
2023-03-01T08:38:13.888Z,2.72
2023-03-01T08:40:14.179Z,2.79
2023-03-01T08:42:14.497Z,2.74
2023-03-01T08:44:14.895Z,2.74
2023-03-01T08:46:15.708Z,2.82
2023-03-01T08:48:15.993Z,2.86
2023-03-01T08:50:16.555Z,2.95
2023-03-01T08:52:16.933Z,2.90
2023-03-01T08:54:17.283Z,3.05
2023-03-01T08:56:17.550Z,3.11
2023-03-01T08:58:17.913Z,3.16
2023-03-01T09:00:18.199Z,3.23
2023-03-01T09:02:18.559Z,3.22
2023-03-01T09:04:18.811Z,3.25
2023-03-01T09:06:19.121Z,3.26
2023-03-01T09:08:19.498Z,3.29
2023-03-01T09:10:19.820Z,3.34
2023-03-01T09:12:20.161Z,3.32
2023-03-01T09:14:20.436Z,3.50
2023-03-01T09:16:21.287Z,3.60
2023-03-01T09:18:21.564Z,3.62
2023-03-01T09:20:21.941Z,3.65
2023-03-01T09:22:22.229Z,3.66
2023-03-01T09:24:22.561Z,3.74
2023-03-01T09:26:22.838Z,3.87
2023-03-01T09:28:29.634Z,3.91
2023-03-01T09:30:28.331Z,3.96
2023-03-01T09:32:28.732Z,4.04
2023-03-01T09:34:29.046Z,4.17
2023-03-01T09:36:29.808Z,4.13
2023-03-01T09:38:30.315Z,4.20
2023-03-01T09:40:35.598Z,4.20
2023-03-01T09:42:35.889Z,4.28
2023-03-01T09:44:36.166Z,4.32
2023-03-01T09:46:36.570Z,4.45
2023-03-01T09:48:36.814Z,4.52
2023-03-01T09:50:37.205Z,4.35
2023-03-01T09:52:37.491Z,4.48
2023-03-01T09:54:37.794Z,4.55
2023-03-01T09:56:38.090Z,4.66
2023-03-01T09:58:38.392Z,4.67
2023-03-01T10:00:38.665Z,4.68
2023-03-01T10:02:38.995Z,4.80
2023-03-01T10:04:39.302Z,4.89
2023-03-01T10:06:39.595Z,5.00
2023-03-01T10:08:39.935Z,5.17
2023-03-01T10:10:40.285Z,5.30
2023-03-01T10:12:40.527Z,5.23
2023-03-01T10:14:40.907Z,5.28
2023-03-01T10:16:41.201Z,5.28
2023-03-01T10:18:41.486Z,5.26
2023-03-01T10:20:41.831Z,5.28
2023-03-01T10:22:42.128Z,5.48
2023-03-01T10:24:42.427Z,5.54
2023-03-01T10:26:42.718Z,5.66
2023-03-01T10:28:43.072Z,5.61
2023-03-01T10:30:43.370Z,5.73
2023-03-01T10:32:43.664Z,5.91
2023-03-01T10:34:43.920Z,6.04
2023-03-01T10:36:44.351Z,6.09
2023-03-01T10:38:44.658Z,6.12
2023-03-01T10:40:44.945Z,6.19
2023-03-01T10:42:45.381Z,6.27
2023-03-01T10:44:45.669Z,6.20
2023-03-01T10:46:45.978Z,6.11
2023-03-01T10:48:46.304Z,6.11
2023-03-01T10:50:46.614Z,6.11
2023-03-01T10:52:46.909Z,6.26
2023-03-01T10:54:47.254Z,6.42
2023-03-01T10:56:47.496Z,6.54
2023-03-01T10:58:47.812Z,6.54
2023-03-01T11:00:48.129Z,6.57
2023-03-01T11:02:48.399Z,6.66
2023-03-01T11:04:48.866Z,6.78
2023-03-01T11:06:49.185Z,6.95
2023-03-01T11:08:49.460Z,6.89
2023-03-01T11:10:49.748Z,6.87
2023-03-01T11:12:50.075Z,6.87
2023-03-01T11:14:50.355Z,6.95
2023-03-01T11:16:50.709Z,6.99
2023-03-01T11:18:51.014Z,7.00
2023-03-01T11:20:51.319Z,7.11
2023-03-01T11:22:51.617Z,7.10
2023-03-01T11:25:03.509Z,7.18
2023-03-01T11:26:57.107Z,7.38
2023-03-01T11:28:57.395Z,7.53
2023-03-01T11:31:07.662Z,7.72
2023-03-01T11:33:03.081Z,8.16
2023-03-01T11:35:03.397Z,8.34
2023-03-01T11:37:03.730Z,8.34
2023-03-01T11:39:04.072Z,8.66
2023-03-01T11:41:04.451Z,8.63
2023-03-01T11:43:04.729Z,8.81
2023-03-01T11:45:05.069Z,8.84
2023-03-01T11:47:05.510Z,8.78
2023-03-01T11:49:05.867Z,8.79
2023-03-01T11:51:06.159Z,8.91
2023-03-01T11:53:06.441Z,9.06
2023-03-01T11:55:06.823Z,8.99
2023-03-01T11:57:07.121Z,9.06
2023-03-01T11:59:07.375Z,9.28
2023-03-01T12:01:07.729Z,9.55
2023-03-01T12:03:07.989Z,9.62
2023-03-01T12:05:08.536Z,9.56
2023-03-01T12:07:08.876Z,9.31
2023-03-01T12:09:09.173Z,9.43
2023-03-01T12:11:09.472Z,9.54
2023-03-01T12:13:09.762Z,9.74
2023-03-01T12:15:10.038Z,9.22
2023-03-01T12:17:10.433Z,8.95
2023-03-01T12:19:10.751Z,9.14
2023-03-01T12:21:11.031Z,9.40
2023-03-01T12:23:20.105Z,9.59
2023-03-01T12:25:16.542Z,9.56
2023-03-01T12:27:16.890Z,9.14
2023-03-01T12:29:17.177Z,9.64
2023-03-01T12:31:17.500Z,9.76
2023-03-01T12:33:17.794Z,9.91
2023-03-01T12:35:18.154Z,10.09
2023-03-01T12:37:18.463Z,9.99
2023-03-01T12:39:20.355Z,9.76
2023-03-01T12:41:20.704Z,9.46
2023-03-01T12:43:21.029Z,9.51
2023-03-01T12:45:21.416Z,9.23
2023-03-01T12:47:21.673Z,9.29
2023-03-01T12:49:21.982Z,9.41
2023-03-01T12:51:22.259Z,9.47
2023-03-01T12:53:22.619Z,9.64
2023-03-01T12:55:22.932Z,9.66
2023-03-01T12:57:23.220Z,9.61
2023-03-01T12:59:23.496Z,9.68
2023-03-01T13:01:24.088Z,9.80
2023-03-01T13:03:24.496Z,9.61
2023-03-01T13:05:24.797Z,9.92
2023-03-01T13:07:25.109Z,10.26
2023-03-01T13:09:25.386Z,10.02
2023-03-01T13:11:25.747Z,10.04
2023-03-01T13:13:25.989Z,9.84
2023-03-01T13:15:26.347Z,10.01
2023-03-01T13:17:26.625Z,10.26
2023-03-01T13:19:26.934Z,10.25
2023-03-01T13:21:27.220Z,10.54
2023-03-01T13:23:27.547Z,10.64
2023-03-01T13:25:34.653Z,10.44
2023-03-01T13:27:33.077Z,10.51
2023-03-01T13:29:33.366Z,10.30
2023-03-01T13:31:33.788Z,10.22
2023-03-01T13:33:34.314Z,10.46
2023-03-01T13:35:34.669Z,10.53
2023-03-01T13:37:35.002Z,10.57
2023-03-01T13:39:35.332Z,10.49
2023-03-01T13:41:40.623Z,10.64
2023-03-01T13:43:45.724Z,10.74
2023-03-01T13:45:46.299Z,10.87
2023-03-01T13:47:46.669Z,10.69
2023-03-01T13:49:47.119Z,10.63
2023-03-01T13:51:47.405Z,10.78
2023-03-01T13:53:48.081Z,10.92
2023-03-01T13:55:48.338Z,10.99
2023-03-01T13:57:48.659Z,10.96
2023-03-01T13:59:48.989Z,10.97
2023-03-01T14:01:49.365Z,10.99
2023-03-01T14:03:49.928Z,11.40
2023-03-01T14:05:50.197Z,11.59
2023-03-01T14:07:50.803Z,11.54
2023-03-01T14:09:51.068Z,11.50
2023-03-01T14:11:51.357Z,11.43
2023-03-01T14:13:51.675Z,11.37
2023-03-01T14:15:52.069Z,11.29
2023-03-01T14:17:52.389Z,11.43
2023-03-01T14:19:52.689Z,11.52
2023-03-01T14:21:53.186Z,11.60
2023-03-01T14:23:53.491Z,11.57
2023-03-01T14:25:53.762Z,11.05
2023-03-01T14:27:54.146Z,10.99
2023-03-01T14:29:54.408Z,10.96
2023-03-01T14:31:54.943Z,10.97
2023-03-01T14:33:55.317Z,11.18
2023-03-01T14:35:55.648Z,11.10
2023-03-01T14:37:55.952Z,10.96
2023-03-01T14:39:56.297Z,10.96
2023-03-01T14:42:00.582Z,11.05
2023-03-01T14:44:01.951Z,10.89
2023-03-01T14:46:02.289Z,10.94
2023-03-01T14:48:02.696Z,11.07
2023-03-01T14:50:03.036Z,11.11
2023-03-01T14:52:08.253Z,10.92
2023-03-01T14:54:08.536Z,10.78
2023-03-01T14:56:08.843Z,10.89
2023-03-01T14:58:09.180Z,10.84
2023-03-01T15:00:09.465Z,10.78
2023-03-01T15:02:09.809Z,10.60
2023-03-01T15:04:10.102Z,10.79
2023-03-01T15:06:10.396Z,10.92
2023-03-01T15:08:15.724Z,10.99
2023-03-01T15:10:16.067Z,10.96
2023-03-01T15:12:16.336Z,10.97
2023-03-01T15:14:16.623Z,10.93
2023-03-01T15:16:17.478Z,10.86
2023-03-01T15:18:17.795Z,10.87
2023-03-01T15:20:18.089Z,10.79
2023-03-01T15:22:18.377Z,10.81
2023-03-01T15:24:18.714Z,10.81
2023-03-01T15:26:19.092Z,10.56
2023-03-01T15:28:19.352Z,10.51
2023-03-01T15:30:19.644Z,10.46
2023-03-01T15:32:20.060Z,10.41
2023-03-01T15:34:20.322Z,10.49
2023-03-01T15:36:25.512Z,10.42
2023-03-01T15:38:26.175Z,10.37
2023-03-01T15:40:26.535Z,10.30
2023-03-01T15:42:26.801Z,10.35
2023-03-01T15:44:29.960Z,10.13
2023-03-01T15:46:32.749Z,10.10
2023-03-01T15:48:33.301Z,10.15
2023-03-01T15:50:33.732Z,10.12
2023-03-01T15:52:34.028Z,10.02
2023-03-01T15:54:34.356Z,9.97
2023-03-01T15:56:39.571Z,9.91
2023-03-01T15:58:39.864Z,9.83
2023-03-01T16:00:48.608Z,9.69
2023-03-01T16:02:45.387Z,9.74
2023-03-01T16:04:45.737Z,9.64
2023-03-01T16:06:46.042Z,9.58
2023-03-01T16:08:46.420Z,9.54
2023-03-01T16:10:46.700Z,9.40
2023-03-01T16:12:47.003Z,9.26
2023-03-01T16:14:47.444Z,9.11
2023-03-01T16:16:47.757Z,8.97
2023-03-01T16:18:48.119Z,8.91
2023-03-01T16:20:48.407Z,8.79
2023-03-01T16:22:48.716Z,8.64
2023-03-01T16:24:49.010Z,8.56
2023-03-01T16:26:50.034Z,8.42
2023-03-01T16:28:50.398Z,8.34
2023-03-01T16:30:50.709Z,8.24
2023-03-01T16:32:51.208Z,8.16
2023-03-01T16:34:51.657Z,8.15
2023-03-01T16:36:51.948Z,8.06
2023-03-01T16:38:52.273Z,7.88
2023-03-01T16:40:52.558Z,7.80
2023-03-01T16:42:52.934Z,7.72
2023-03-01T16:44:53.246Z,7.58
2023-03-01T16:46:53.549Z,7.53
2023-03-01T16:48:53.851Z,7.47
2023-03-01T16:50:54.163Z,7.32
2023-03-01T16:52:54.460Z,7.28
2023-03-01T16:54:54.741Z,7.20
2023-03-01T16:56:59.942Z,7.11
2023-03-01T16:59:01.670Z,7.02
2023-03-01T17:01:04.778Z,6.95
2023-03-01T17:03:05.151Z,6.81
2023-03-01T17:05:05.409Z,6.79
2023-03-01T17:07:05.768Z,6.85
2023-03-01T17:09:06.050Z,6.93
2023-03-01T17:11:06.407Z,6.99
2023-03-01T17:13:06.712Z,6.93
2023-03-01T17:15:07.003Z,6.88
2023-03-01T17:17:07.287Z,6.74
2023-03-01T17:19:07.719Z,6.64
2023-03-01T17:21:07.968Z,6.60
2023-03-01T17:23:08.308Z,6.51
2023-03-01T17:25:08.622Z,6.35
2023-03-01T17:27:09.567Z,6.27
2023-03-01T17:29:09.892Z,6.20
2023-03-01T17:31:10.162Z,6.19
2023-03-01T17:33:10.521Z,6.09
2023-03-01T17:35:10.839Z,6.04
2023-03-01T17:37:11.142Z,5.97
2023-03-01T17:39:11.406Z,5.91
2023-03-01T17:41:11.710Z,5.86
2023-03-01T17:43:12.036Z,5.79
2023-03-01T17:45:12.357Z,5.75
2023-03-01T17:47:12.664Z,5.76
2023-03-01T17:49:13.030Z,5.69
2023-03-01T17:51:13.332Z,5.57
2023-03-01T17:53:13.663Z,5.53
2023-03-01T17:55:13.973Z,5.46
2023-03-01T17:57:14.259Z,5.33
2023-03-01T17:59:14.565Z,5.30
2023-03-01T18:01:15.002Z,5.20
2023-03-01T18:03:15.309Z,5.11
2023-03-01T18:05:15.640Z,4.97
2023-03-01T18:07:15.978Z,4.92
2023-03-01T18:09:16.249Z,4.90
2023-03-01T18:11:16.558Z,4.90
2023-03-01T18:13:16.885Z,4.89
2023-03-01T18:15:19.765Z,4.89
2023-03-01T18:17:22.878Z,4.93
2023-03-01T18:19:23.252Z,4.94
2023-03-01T18:21:24.123Z,4.96
2023-03-01T18:23:24.391Z,4.90
2023-03-01T18:25:24.702Z,4.80
2023-03-01T18:27:25.023Z,4.75
2023-03-01T18:29:25.292Z,4.70
2023-03-01T18:31:25.782Z,4.62
2023-03-01T18:33:26.101Z,4.52
2023-03-01T18:35:26.433Z,4.44
2023-03-01T18:37:26.704Z,4.37
2023-03-01T18:39:27.032Z,4.28
2023-03-01T18:41:27.359Z,4.20
2023-03-01T18:43:27.652Z,4.12
2023-03-01T18:45:27.924Z,3.99
2023-03-01T18:47:28.253Z,3.94
2023-03-01T18:49:28.561Z,3.94
2023-03-01T18:51:28.882Z,3.98
2023-03-01T18:53:29.177Z,3.91
2023-03-01T18:55:29.476Z,3.83
2023-03-01T18:57:29.755Z,3.74
2023-03-01T18:59:30.088Z,3.74
2023-03-01T19:01:30.919Z,3.69
2023-03-01T19:03:31.392Z,3.76
2023-03-01T19:05:31.715Z,3.96
2023-03-01T19:07:32.008Z,4.13
2023-03-01T19:09:33.063Z,4.12
2023-03-01T19:11:33.855Z,4.05
2023-03-01T19:13:34.223Z,3.99
2023-03-01T19:15:34.573Z,3.92
2023-03-01T19:17:34.899Z,3.78
2023-03-01T19:19:35.222Z,3.65
2023-03-01T19:21:35.853Z,3.42
2023-03-01T19:23:36.296Z,3.25
2023-03-01T19:25:36.664Z,3.18
2023-03-01T19:27:36.959Z,3.10
2023-03-01T19:29:37.275Z,2.97
2023-03-01T19:31:37.575Z,2.92
2023-03-01T19:33:37.986Z,3.03
2023-03-01T19:35:38.340Z,3.03
2023-03-01T19:37:38.632Z,3.07
2023-03-01T19:39:39.090Z,3.03
2023-03-01T19:41:39.393Z,3.03
2023-03-01T19:43:39.679Z,3.03
2023-03-01T19:45:40.027Z,3.01
2023-03-01T19:47:40.325Z,3.00
2023-03-01T19:49:40.725Z,3.05
2023-03-01T19:51:41.062Z,3.08
2023-03-01T19:53:41.339Z,3.31
2023-03-01T19:55:41.640Z,3.51
2023-03-01T19:57:41.995Z,3.58
2023-03-01T19:59:47.320Z,3.65
2023-03-01T20:01:47.590Z,3.76
2023-03-01T20:03:47.900Z,3.74
2023-03-01T20:05:48.262Z,3.81
2023-03-01T20:07:48.587Z,3.81
2023-03-01T20:09:48.893Z,3.86
2023-03-01T20:11:49.213Z,3.87
2023-03-01T20:13:49.582Z,3.83
2023-03-01T20:15:49.892Z,3.84
2023-03-01T20:17:50.227Z,3.87
2023-03-01T20:19:50.558Z,3.83
2023-03-01T20:21:50.882Z,3.77
2023-03-01T20:23:51.154Z,3.66
2023-03-01T20:25:51.451Z,3.62
2023-03-01T20:27:51.767Z,3.59
2023-03-01T20:29:52.149Z,3.63
2023-03-01T20:31:52.564Z,3.63
2023-03-01T20:33:52.908Z,3.62
2023-03-01T20:35:55.098Z,3.55
2023-03-01T20:37:55.392Z,3.48
2023-03-01T20:39:56.574Z,3.47
2023-03-01T20:41:56.856Z,3.53
2023-03-01T20:43:57.199Z,3.55
2023-03-01T20:45:57.475Z,3.58
2023-03-01T20:47:57.799Z,3.48
2023-03-01T20:49:58.053Z,3.26
2023-03-01T20:51:58.369Z,3.08
2023-03-01T20:53:58.714Z,3.00
2023-03-01T20:55:59.045Z,3.04
2023-03-01T20:57:59.307Z,3.05
2023-03-01T20:59:59.640Z,2.93
2023-03-01T21:02:00.011Z,2.90
2023-03-01T21:04:00.388Z,2.80
2023-03-01T21:06:00.761Z,2.72
2023-03-01T21:08:01.072Z,2.65
2023-03-01T21:10:01.481Z,2.56
2023-03-01T21:12:01.842Z,2.61
2023-03-01T21:14:02.216Z,2.60
2023-03-01T21:16:02.534Z,2.56
2023-03-01T21:18:02.837Z,2.42
2023-03-01T21:20:03.167Z,2.26
2023-03-01T21:22:03.621Z,2.14
2023-03-01T21:24:03.999Z,2.07
2023-03-01T21:26:04.309Z,1.95
2023-03-01T21:28:04.707Z,1.84
2023-03-01T21:30:09.459Z,1.76
2023-03-01T21:32:51.774Z,1.74
2023-03-01T21:34:52.352Z,1.67
2023-03-01T21:36:52.741Z,1.56
2023-03-01T21:38:53.228Z,1.55
2023-03-01T21:40:53.777Z,1.49
2023-03-01T21:42:54.289Z,1.32
2023-03-01T21:44:55.108Z,1.40
2023-03-01T21:46:55.462Z,1.37
2023-03-01T21:48:55.752Z,1.42
2023-03-01T21:50:56.244Z,1.56
2023-03-01T21:52:56.554Z,1.78
2023-03-01T21:54:56.880Z,1.85
2023-03-01T21:56:57.155Z,2.00
2023-03-01T21:58:57.469Z,2.18
2023-03-01T22:00:58.483Z,2.29
2023-03-01T22:02:58.817Z,2.42
2023-03-01T22:04:59.137Z,2.43
2023-03-01T22:06:59.423Z,2.47
2023-03-01T22:08:59.724Z,2.57
2023-03-01T22:11:00.121Z,2.68
2023-03-01T22:13:00.401Z,2.69
2023-03-01T22:15:00.710Z,2.69
2023-03-01T22:17:01.186Z,2.71
2023-03-01T22:19:01.509Z,2.67
2023-03-01T22:21:01.885Z,2.64
2023-03-01T22:23:02.157Z,2.56
2023-03-01T22:25:02.559Z,2.44
2023-03-01T22:27:02.846Z,2.42
2023-03-01T22:29:03.222Z,2.36
2023-03-01T22:31:45.312Z,2.39
2023-03-01T22:33:45.667Z,2.39
2023-03-01T22:35:46.058Z,2.47
2023-03-01T22:37:51.211Z,2.56
2023-03-01T22:39:51.467Z,2.53
2023-03-01T22:41:51.800Z,2.49
2023-03-01T22:43:52.082Z,2.39
2023-03-01T22:45:52.433Z,2.35
2023-03-01T22:47:52.709Z,2.54
2023-03-01T22:49:53.015Z,2.82
2023-03-01T22:51:53.337Z,2.98
2023-03-01T22:53:53.831Z,3.05
2023-03-01T22:55:55.225Z,3.18
2023-03-01T22:57:55.497Z,3.14
2023-03-01T22:59:55.774Z,3.16
2023-03-01T23:01:56.192Z,3.32
2023-03-01T23:03:56.448Z,3.48
2023-03-01T23:05:56.777Z,3.47
2023-03-01T23:07:57.055Z,3.47
2023-03-01T23:09:57.370Z,3.34
2023-03-01T23:11:57.826Z,3.26
2023-03-01T23:13:58.097Z,3.28
2023-03-01T23:15:58.497Z,3.29
2023-03-01T23:17:59.129Z,3.36
2023-03-01T23:19:59.464Z,3.41
2023-03-01T23:21:59.836Z,3.37
2023-03-01T23:24:05.032Z,3.25
2023-03-01T23:26:05.358Z,3.25
2023-03-01T23:28:05.718Z,3.22
2023-03-01T23:30:06.374Z,3.25
2023-03-01T23:32:06.837Z,3.23
2023-03-01T23:34:07.260Z,3.22
2023-03-01T23:36:07.691Z,3.14
2023-03-01T23:38:08.013Z,3.21
2023-03-01T23:40:08.356Z,3.34
2023-03-01T23:42:08.696Z,3.37
2023-03-01T23:44:08.989Z,3.34
2023-03-01T23:46:09.439Z,3.48
2023-03-01T23:48:09.824Z,3.41
2023-03-01T23:50:10.122Z,3.31
2023-03-01T23:52:10.421Z,3.22
2023-03-01T23:54:10.710Z,3.22
2023-03-01T23:56:11.037Z,3.18
2023-03-01T23:58:11.301Z,3.16
